Date,TemperatureHighF,TemperatureAvgF,TemperatureLowF,DewpointHighF,DewpointAvgF,DewpointLowF,HumidityHigh,HumidityAvg,HumidityLow,PressureMaxIn,PressureMinIn,WindSpeedMaxMPH,WindSpeedAvgMPH,GustSpeedMaxMPH,PrecipitationSumIn
2013-1-1,40.6,37.5,27.5,30.0,24.9,13.0,69,61,47,30.00,29.82,10,4,19,0.00
2013-1-2,34.0,28.7,24.2,18.0,13.8,11.0,61,54,44,30.17,30.00,10,4,18,0.00
2013-1-3,33.9,30.3,26.9,20.0,17.4,15.0,68,59,48,30.18,30.06,13,3,18,0.00
2013-1-4,38.0,35.4,32.3,24.0,22.4,20.0,66,60,52,30.08,29.94,15,4,19,0.00
2013-1-5,43.8,38.0,33.3,25.0,22.4,19.0,61,54,44,30.26,30.01,10,3,20,0.00
2013-1-6,46.3,40.3,34.4,33.0,29.3,24.0,89,66,49,30.21,29.96,7,2,13,0.00
2013-1-7,46.3,42.1,38.8,31.0,26.0,22.0,69,54,39,30.38,30.04,8,2,16,0.00
2013-1-8,48.9,42.1,36.2,34.0,30.9,25.0,73,65,54,30.42,30.33,7,2,13,0.00
2013-1-9,50.3,45.7,39.1,40.0,35.6,31.0,78,68,60,30.38,30.12,10,2,18,0.00
2013-1-10,48.7,45.2,41.5,35.0,26.4,24.0,64,48,38,30.53,30.23,8,3,17,0.00
2013-1-11,46.6,42.9,38.7,46.0,34.6,25.0,96,74,53,30.52,30.08,4,1,8,0.55
2013-1-12,46.6,45.1,43.9,45.0,43.9,43.0,97,95,92,30.16,30.05,9,2,11,0.03
2013-1-13,50.6,46.6,43.3,50.0,45.3,43.0,98,95,89,30.15,30.00,4,1,6,0.00
2013-1-14,57.4,51.4,40.3,53.0,44.3,30.0,99,79,49,30.29,29.90,11,2,14,0.07
2013-1-15,40.0,38.2,36.1,35.0,28.8,25.0,88,70,58,30.33,30.21,9,4,12,0.13
2013-1-16,37.9,35.5,33.1,35.0,33.6,30.0,95,92,78,30.21,29.79,7,2,14,0.78
2013-1-17,44.5,40.9,36.9,35.0,29.2,24.0,86,64,53,30.08,29.90,14,3,17,0.00
2013-1-18,36.8,30.0,26.7,25.0,12.4,5.0,65,49,33,30.48,29.99,10,3,16,0.00
2013-1-19,52.3,41.2,30.1,30.0,24.9,14.0,69,53,38,30.39,29.91,13,3,14,0.00
2013-1-20,54.4,44.2,31.3,31.0,24.6,12.0,66,48,24,30.03,29.68,17,5,25,0.00
2013-1-21,32.8,30.4,27.7,19.0,12.9,8.0,62,49,41,30.08,29.82,11,2,15,0.00
2013-1-22,28.2,20.9,14.6,15.0,2.6,-6.0,68,46,31,30.20,29.82,17,7,24,0.00
2013-1-23,19.5,15.9,12.1,2.0,-2.3,-6.0,55,45,35,30.25,30.16,13,5,20,0.00
2013-1-24,23.9,18.9,15.2,4.0,0.7,-5.0,60,46,32,30.39,30.12,15,5,25,0.00
2013-1-25,24.4,19.0,14.1,18.0,7.3,-1.0,88,62,46,30.41,30.06,11,3,19,0.00
2013-1-26,28.3,22.1,18.0,14.0,10.0,6.0,79,61,43,30.36,30.04,12,4,19,0.00
2013-1-27,35.6,28.0,20.9,14.0,11.2,8.0,68,51,36,30.51,30.36,9,3,15,0.00
2013-1-28,36.5,33.3,29.9,34.0,25.8,13.0,92,76,47,30.48,30.00,6,2,12,0.19
2013-1-29,50.4,43.0,36.6,42.0,39.3,34.0,93,87,72,30.13,29.99,8,2,13,0.05
2013-1-30,57.0,48.9,39.4,53.0,47.0,38.0,98,93,81,30.07,29.36,7,1,15,0.02
2013-1-31,60.6,45.5,30.5,58.0,31.6,10.0,98,61,36,29.78,29.05,23,8,40,0.92
2013-2-1,31.7,29.1,24.9,16.0,12.4,6.0,65,50,34,30.22,29.79,13,6,23,0.00
2013-2-2,30.2,25.4,20.1,22.0,10.3,6.0,86,54,36,30.30,30.05,11,4,16,0.00
2013-2-3,31.0,27.8,25.1,24.0,20.5,17.0,90,75,58,30.05,29.78,8,2,14,0.00
2013-2-4,30.6,28.0,24.2,22.0,12.1,9.0,74,52,40,29.97,29.80,15,6,23,0.00
2013-2-5,31.9,30.3,28.8,30.0,26.2,18.0,91,85,61,29.96,29.89,7,2,10,0.00
2013-2-6,39.8,34.5,30.6,31.0,21.5,3.0,95,63,31,30.35,29.91,10,4,20,0.00
2013-2-7,32.4,30.1,27.5,23.0,11.6,4.0,68,47,32,30.50,30.32,8,3,11,0.00
2013-2-8,35.1,32.7,27.5,33.0,29.8,23.0,97,89,69,30.31,29.61,19,7,25,0.31
2013-2-9,33.6,28.5,23.1,28.0,18.0,7.0,98,68,38,30.33,29.74,13,5,23,0.00
2013-2-10,37.9,28.3,20.8,26.0,14.1,7.0,75,56,33,30.48,30.32,7,2,16,0.00
2013-2-11,46.5,41.8,34.0,46.0,39.3,23.0,98,91,63,30.33,29.65,11,1,14,0.66
2013-2-12,45.3,42.3,38.2,42.0,27.9,25.0,88,58,48,29.96,29.71,15,5,23,0.00
2013-2-13,45.8,39.2,34.7,33.0,26.5,23.0,89,61,47,29.94,29.68,6,2,10,0.01
2013-2-14,47.3,39.7,34.9,36.0,30.7,24.0,91,72,45,29.99,29.69,7,2,10,0.01
2013-2-15,54.9,44.2,37.4,40.0,34.6,28.0,81,70,47,30.01,29.91,11,2,14,0.00
2013-2-16,42.4,36.5,32.0,35.0,27.0,16.0,89,69,52,29.95,29.72,12,4,19,0.01
2013-2-17,31.8,27.4,18.5,16.0,6.5,2.0,52,42,31,29.99,29.65,16,8,29,0.00
2013-2-18,35.7,26.6,17.7,15.0,7.1,2.0,56,44,30,30.23,30.00,16,5,24,0.00
2013-2-19,48.9,40.7,32.3,44.0,30.5,15.0,94,69,46,30.20,29.66,13,3,20,0.13
2013-2-20,39.2,31.6,26.3,27.0,14.8,10.0,63,50,41,29.98,29.71,20,8,26,0.00
2013-2-21,35.0,28.6,25.1,16.0,13.2,11.0,63,53,43,30.27,29.97,17,7,23,0.00
2013-2-22,38.3,32.6,26.8,33.0,23.2,16.0,81,69,58,30.39,30.25,13,3,15,0.00
2013-2-23,44.9,38.9,36.1,44.0,37.6,34.0,97,94,84,30.25,29.79,11,3,18,0.41
2013-2-24,48.3,40.5,34.8,39.0,32.6,23.0,96,75,54,29.95,29.72,15,4,20,0.02
2013-2-25,44.8,40.0,34.0,29.0,26.3,23.0,71,59,48,30.22,29.97,6,2,13,0.00
2013-2-26,44.6,39.7,35.4,35.0,32.0,29.0,92,75,58,30.28,29.88,15,3,17,0.16
2013-2-27,47.9,42.5,37.2,45.0,39.6,35.0,98,90,73,29.88,29.49,14,5,19,1.67
2013-2-28,50.4,45.5,40.1,39.0,34.7,29.0,81,67,52,29.61,29.53,8,3,13,0.00
2013-3-1,45.9,40.9,37.5,32.0,29.9,27.0,77,66,50,29.76,29.59,13,4,16,0.00
2013-3-2,39.9,36.5,32.4,28.0,25.5,24.0,80,65,55,29.77,29.68,8,3,16,0.00
2013-3-3,40.7,33.3,29.5,25.0,20.1,17.0,77,59,44,29.75,29.65,13,4,20,0.00
2013-3-4,41.3,34.3,28.1,21.0,19.9,16.0,68,56,44,29.89,29.75,13,6,23,0.00
2013-3-5,47.7,39.9,32.7,31.0,25.2,21.0,68,57,42,30.00,29.90,9,3,16,0.00
2013-3-6,41.9,40.1,37.7,36.0,32.2,29.0,85,74,65,29.97,29.83,23,9,32,0.00
2013-3-7,39.2,36.3,34.0,33.0,31.1,27.0,92,82,68,30.06,29.90,18,6,25,0.11
2013-3-8,43.0,36.1,31.7,34.0,31.4,28.0,96,84,59,30.17,29.99,12,3,23,0.43
2013-3-9,56.5,45.6,37.2,34.0,24.1,16.0,78,46,24,30.31,30.15,13,4,21,0.00
2013-3-10,47.7,40.7,36.2,36.0,34.3,32.0,88,78,63,30.38,30.30,7,2,10,0.00
2013-3-11,53.3,46.1,39.7,46.0,42.2,36.0,94,86,73,30.31,30.09,7,2,13,0.00
2013-3-12,56.7,50.1,45.2,55.0,47.4,38.0,97,90,74,30.09,29.66,11,4,21,0.73
2013-3-13,50.1,44.9,41.3,38.0,30.4,23.0,77,59,35,29.88,29.77,16,4,18,0.00
2013-3-14,41.6,35.9,30.1,26.0,13.5,7.0,63,41,25,29.95,29.83,14,7,30,0.00
2013-3-15,48.1,38.1,30.9,32.0,19.5,10.0,61,48,36,29.97,29.70,12,4,18,0.00
2013-3-16,43.1,36.8,33.8,32.0,26.8,20.0,91,69,49,29.90,29.77,8,2,14,0.05
2013-3-17,38.3,34.8,30.5,30.0,19.2,11.0,79,55,35,30.30,29.90,14,3,18,0.01
2013-3-18,36.7,32.6,28.7,33.0,20.0,8.0,96,63,38,30.40,30.02,10,4,15,0.00
2013-3-19,46.4,38.9,33.9,37.0,34.4,29.0,96,85,64,30.01,29.68,13,4,17,0.90
2013-3-20,45.8,39.8,33.2,29.0,19.9,16.0,67,46,31,29.88,29.77,15,4,24,0.00
2013-3-21,40.3,35.6,32.7,27.0,17.7,11.0,77,49,34,29.83,29.62,13,3,18,0.00
2013-3-22,41.3,35.6,29.7,24.0,17.8,13.0,64,49,39,29.87,29.72,12,5,21,0.00
2013-3-23,45.7,39.9,33.4,24.0,20.5,18.0,63,47,35,29.93,29.81,18,6,25,0.00
2013-3-24,46.1,39.9,34.5,28.0,22.3,20.0,61,50,38,29.94,29.70,8,3,18,0.00
2013-3-25,40.5,38.3,36.5,36.0,31.3,27.0,92,76,59,29.70,29.45,17,4,24,0.23
2013-3-26,52.0,44.9,38.8,32.0,28.5,25.0,76,54,35,29.85,29.57,12,3,17,0.00
2013-3-27,52.8,45.8,38.6,33.0,26.2,21.0,62,48,29,29.96,29.85,11,4,21,0.00
2013-3-28,49.4,44.7,39.3,35.0,30.9,29.0,71,59,46,30.09,29.94,11,4,17,0.01
2013-3-29,54.7,48.1,42.3,31.0,29.1,26.0,63,49,34,30.13,30.03,11,4,16,0.00
2013-3-30,59.3,49.5,42.3,37.0,29.2,20.0,65,48,22,30.16,30.05,7,2,16,0.00
2013-3-31,54.4,48.6,43.3,45.0,35.5,24.0,96,63,35,30.11,29.66,14,3,16,0.16
2013-4-1,62.5,49.8,39.8,46.0,38.8,13.0,96,69,34,29.89,29.61,11,4,23,0.00
2013-4-2,43.7,38.7,34.3,18.0,13.7,10.0,49,37,26,30.07,29.91,12,6,22,0.00
2013-4-3,47.1,39.5,34.0,15.0,12.5,9.0,45,34,23,30.27,30.07,17,6,23,0.00
2013-4-4,52.1,42.2,34.7,33.0,22.9,16.0,64,47,31,30.38,30.08,8,3,15,0.00
2013-4-5,63.3,50.7,41.4,33.0,26.0,19.0,68,43,19,30.07,29.69,12,3,19,0.00
2013-4-6,52.4,43.0,36.5,31.0,17.9,8.0,65,39,18,30.30,29.98,14,3,20,0.00
2013-4-7,54.0,48.3,39.7,45.0,37.2,25.0,79,66,48,30.30,29.99,16,3,22,0.00
2013-4-8,73.7,58.8,49.5,48.0,44.7,41.0,86,62,32,30.06,29.96,9,2,12,0.00
2013-4-9,83.9,68.7,50.9,53.0,44.6,35.0,87,50,18,29.99,29.89,11,2,26,0.00
2013-4-10,72.5,63.0,55.6,56.0,50.1,45.0,94,64,48,29.96,29.80,8,2,16,0.61
2013-4-11,60.5,55.2,48.0,59.0,49.6,40.0,95,82,67,30.03,29.75,10,3,15,0.03
2013-4-12,48.8,43.7,41.5,43.0,40.6,38.0,95,89,67,30.01,29.70,17,6,19,0.64
2013-4-13,57.1,48.9,41.7,45.0,39.5,33.0,95,72,45,29.96,29.73,10,2,13,0.03
2013-4-14,58.4,53.2,48.3,45.0,33.9,27.0,84,51,31,30.21,29.95,15,3,19,0.00
2013-4-15,56.1,49.6,45.5,42.0,31.5,26.0,81,51,37,30.37,30.22,7,2,11,0.00
2013-4-16,62.3,55.3,47.0,54.0,48.6,40.0,85,78,71,30.36,30.11,17,3,22,0.00
2013-4-17,71.4,62.1,56.2,57.0,46.7,39.0,88,60,32,30.28,30.09,9,2,12,0.02
2013-4-18,58.5,54.5,50.6,52.0,44.8,39.0,95,71,50,30.34,30.09,11,3,21,0.00
2013-4-19,70.3,60.7,53.5,62.0,57.3,53.0,98,89,72,30.08,29.65,13,3,18,0.02
2013-4-20,64.4,54.6,48.2,62.0,35.4,25.0,92,52,29,30.28,29.66,15,5,21,0.09
2013-4-21,53.9,45.4,38.3,33.0,23.8,19.0,61,44,28,30.61,30.29,11,3,20,0.00
2013-4-22,53.7,47.1,41.6,36.0,32.6,27.0,72,58,37,30.65,30.48,14,4,21,0.00
2013-4-23,52.8,45.8,41.4,42.0,37.9,33.0,90,74,63,30.48,30.10,13,5,18,0.00
2013-4-24,66.1,53.7,45.7,50.0,45.2,40.0,91,74,51,30.10,29.83,8,2,15,0.00
2013-4-25,66.5,56.4,47.5,54.0,33.0,22.0,90,45,19,30.25,29.85,11,3,20,0.00
2013-4-26,67.4,58.1,50.8,37.0,33.2,24.0,57,41,20,30.39,30.25,9,2,14,0.00
2013-4-27,70.9,58.4,49.7,35.0,29.6,25.0,45,35,20,30.41,30.27,10,3,12,0.00
2013-4-28,67.7,58.4,50.0,45.0,35.8,28.0,64,44,24,30.30,30.20,9,2,17,0.00
2013-4-29,56.7,54.8,53.0,50.0,47.9,44.0,86,78,66,30.23,30.17,7,2,11,0.06
2013-4-30,65.8,57.4,52.0,48.0,37.5,23.0,87,54,20,30.33,30.20,9,2,15,0.00
2013-5-1,66.5,56.6,49.4,47.0,39.5,30.0,73,54,32,30.47,30.32,11,2,16,0.00
2013-5-2,69.6,59.7,50.4,47.0,43.5,39.0,84,57,38,30.46,30.32,5,1,8,0.00
2013-5-3,64.4,55.4,49.9,46.0,41.4,36.0,82,61,41,30.45,30.36,14,3,15,0.00
2013-5-4,66.1,54.9,48.7,46.0,43.6,41.0,84,67,44,30.36,30.25,9,2,14,0.00
2013-5-5,60.3,51.8,46.5,45.0,41.5,38.0,80,69,50,30.29,30.22,10,3,14,0.00
2013-5-6,67.1,55.8,47.6,51.0,47.2,43.0,85,74,57,30.26,30.15,7,2,11,0.00
2013-5-7,72.4,62.0,53.1,60.0,54.1,48.0,90,76,62,30.16,30.07,6,2,13,0.00
2013-5-8,63.3,59.2,55.9,60.0,56.9,53.0,98,92,83,30.09,29.97,10,2,13,3.85
2013-5-9,69.4,60.6,55.1,59.0,55.9,54.0,97,85,60,30.00,29.88,7,1,10,0.42
2013-5-10,81.9,67.7,58.3,58.0,56.7,54.0,91,70,42,29.99,29.87,8,1,11,0.00
2013-5-11,70.3,64.5,62.3,64.0,61.6,58.0,95,90,73,29.88,29.68,6,1,14,0.64
2013-5-12,68.8,62.9,53.7,63.0,41.9,25.0,94,50,24,29.92,29.64,18,5,26,0.02
2013-5-13,56.9,51.9,47.9,33.0,28.8,25.0,57,42,30,30.09,29.92,14,4,16,0.00
2013-5-14,63.0,53.6,44.4,39.0,28.5,20.0,64,42,20,30.11,30.00,9,2,12,0.00
2013-5-15,69.3,60.5,52.6,60.0,47.4,33.0,79,63,46,30.05,29.67,10,2,14,0.00
2013-5-16,81.1,71.7,65.9,59.0,51.4,43.0,76,51,33,29.81,29.69,6,1,10,0.00
2013-5-17,75.9,67.8,61.0,44.0,40.9,37.0,49,38,28,30.18,29.81,9,2,13,0.00
2013-5-18,66.7,61.5,59.0,55.0,49.8,41.0,81,67,42,30.30,30.18,4,1,7,0.01
2013-5-19,59.0,57.2,55.7,58.0,55.5,50.0,98,93,72,30.31,30.17,8,2,12,0.58
2013-5-20,82.1,68.8,58.2,67.0,63.1,58.0,99,83,60,30.16,29.95,7,1,9,0.00
2013-5-21,89.3,77.7,67.3,70.0,67.9,65.0,94,74,52,29.96,29.82,6,2,11,0.00
2013-5-22,79.0,70.5,59.2,70.0,64.6,57.0,93,82,69,29.93,29.82,8,2,15,0.00
2013-5-23,83.0,70.8,63.8,70.0,65.9,62.0,94,85,58,29.88,29.75,12,2,14,0.40
2013-5-24,67.5,57.7,46.9,64.0,53.9,42.0,95,87,74,29.93,29.66,11,3,17,0.35
2013-5-25,55.2,50.2,46.1,45.0,42.5,39.0,89,75,57,29.99,29.88,14,5,26,0.13
2013-5-26,69.1,58.5,48.9,40.0,37.1,34.0,69,48,29,30.19,29.94,13,5,24,0.00
2013-5-27,76.8,65.1,51.6,43.0,38.3,34.0,58,39,25,30.24,30.10,7,2,11,0.00
2013-5-28,72.6,61.8,57.2,58.0,51.2,43.0,97,71,38,30.22,30.12,7,1,8,0.59
2013-5-29,84.7,71.1,58.5,68.0,63.2,58.0,98,78,57,30.11,29.98,5,1,8,0.00
2013-5-30,94.3,84.0,73.6,68.0,65.6,62.0,81,56,36,30.11,30.03,4,2,10,0.00
2013-5-31,95.6,85.1,76.4,70.0,66.0,61.0,71,54,37,30.11,29.97,6,1,12,0.00
2013-6-1,92.9,82.8,74.5,69.0,67.3,65.0,78,61,42,30.01,29.88,5,2,13,0.00
2013-6-2,91.8,82.0,73.5,71.0,67.9,64.0,84,64,46,29.91,29.76,10,2,13,0.05
2013-6-3,77.9,72.6,69.6,70.0,66.9,49.0,94,83,47,29.86,29.78,7,1,12,0.68
2013-6-4,77.1,68.8,59.1,50.0,43.0,38.0,55,41,28,30.09,29.87,9,3,15,0.00
2013-6-5,74.5,67.2,60.5,57.0,44.7,36.0,85,46,34,30.19,30.09,8,2,13,0.00
2013-6-6,71.3,64.4,59.6,60.0,56.9,47.0,91,78,43,30.14,30.00,10,2,15,0.10
2013-6-7,63.4,61.5,58.7,62.0,60.3,58.0,98,96,90,30.00,29.61,14,3,24,4.25
2013-6-8,78.2,68.8,57.3,64.0,61.0,57.0,98,78,61,30.03,29.56,9,2,20,1.12
2013-6-9,83.5,74.2,65.7,64.0,59.8,55.0,84,63,43,30.16,30.03,6,1,11,0.00
2013-6-10,71.1,67.6,63.8,66.0,64.3,63.0,98,89,80,30.14,29.82,7,2,16,1.36
2013-6-11,82.0,74.1,64.5,69.0,65.4,60.0,99,76,56,29.81,29.60,11,3,24,0.22
2013-6-12,78.4,72.9,66.7,62.0,54.7,52.0,73,54,41,29.83,29.69,9,3,19,0.00
2013-6-13,72.1,65.3,57.1,62.0,58.1,53.0,95,79,51,29.82,29.45,29,3,30,1.53
2013-6-14,74.7,62.9,54.7,61.0,53.9,51.0,94,74,50,29.87,29.49,18,4,22,0.36
2013-6-15,82.6,73.6,64.3,58.0,53.9,48.0,75,53,30,29.99,29.87,6,2,12,0.00
2013-6-16,83.7,75.9,67.7,66.0,58.0,50.0,76,55,35,29.98,29.76,10,2,16,0.00
2013-6-17,89.5,77.9,70.0,67.0,65.5,62.0,85,67,44,29.90,29.82,11,1,16,0.05
2013-6-18,85.2,73.4,66.6,70.0,65.3,63.0,92,77,50,29.88,29.80,9,2,12,0.22
2013-6-19,79.2,69.8,61.8,64.0,53.2,43.0,94,60,30,30.15,29.86,11,3,18,0.02
2013-6-20,82.2,71.8,63.5,59.0,54.5,51.0,69,55,41,30.26,30.16,9,2,13,0.00
2013-6-21,85.0,73.4,64.7,57.0,52.8,47.0,63,49,38,30.29,30.23,7,2,11,0.00
2013-6-22,85.8,74.4,66.0,63.0,56.3,48.0,75,54,41,30.26,30.13,7,2,12,0.00
2013-6-23,89.8,78.7,70.3,73.0,66.8,58.0,87,68,49,30.18,30.05,7,2,12,0.00
2013-6-24,95.2,84.0,74.9,73.0,68.9,62.0,90,63,35,30.07,29.93,7,2,11,0.00
2013-6-25,93.9,83.2,74.3,72.0,67.8,64.0,76,61,41,29.98,29.79,12,2,19,0.00
2013-6-26,88.4,81.3,74.5,72.0,67.9,65.0,79,65,46,29.83,29.77,7,2,11,0.00
2013-6-27,87.5,80.0,74.4,73.0,71.3,68.0,93,75,54,29.81,29.55,9,2,17,0.13
2013-6-28,90.7,79.8,74.9,72.0,70.0,66.0,89,73,50,29.56,29.46,8,2,11,0.02
2013-6-29,86.5,78.3,72.5,71.0,68.6,66.0,86,73,52,29.64,29.48,8,2,14,0.00